sensor_id;sensor_type;location;lat;lon;timestamp;pressure;altitude;pressure_sealevel;temperature;humidity
33151;BME280;19508;42.578;23.416;2022-12-07T00:01:28;93673.00;;;7.07;76.52
33151;BME280;19508;42.578;23.416;2022-12-07T00:03:56;93676.06;;;6.99;76.50
33151;BME280;19508;42.578;23.416;2022-12-07T00:06:26;93674.53;;;6.91;76.50
33151;BME280;19508;42.578;23.416;2022-12-07T00:08:51;93680.84;;;6.85;76.68
33151;BME280;19508;42.578;23.416;2022-12-07T00:11:19;93672.47;;;6.70;77.45
33151;BME280;19508;42.578;23.416;2022-12-07T00:13:46;93675.72;;;6.72;77.42
33151;BME280;19508;42.578;23.416;2022-12-07T00:16:14;93685.94;;;6.75;77.23
33151;BME280;19508;42.578;23.416;2022-12-07T00:18:41;93683.41;;;6.80;77.20
33151;BME280;19508;42.578;23.416;2022-12-07T00:21:10;93675.38;;;6.57;77.92
33151;BME280;19508;42.578;23.416;2022-12-07T00:23:36;93670.97;;;6.50;78.10
33151;BME280;19508;42.578;23.416;2022-12-07T00:26:11;93658.03;;;6.47;78.19
33151;BME280;19508;42.578;23.416;2022-12-07T00:28:37;93664.91;;;6.43;78.35
33151;BME280;19508;42.578;23.416;2022-12-07T00:31:10;93657.34;;;6.52;78.56
33151;BME280;19508;42.578;23.416;2022-12-07T00:33:36;93664.69;;;6.45;78.75
33151;BME280;19508;42.578;23.416;2022-12-07T00:36:06;93662.13;;;6.50;78.27
33151;BME280;19508;42.578;23.416;2022-12-07T00:38:34;93659.31;;;6.57;78.09
33151;BME280;19508;42.578;23.416;2022-12-07T00:41:08;93653.50;;;6.71;78.02
33151;BME280;19508;42.578;23.416;2022-12-07T00:43:35;93663.88;;;6.68;77.85
33151;BME280;19508;42.578;23.416;2022-12-07T00:46:00;93659.31;;;6.57;78.33
33151;BME280;19508;42.578;23.416;2022-12-07T00:48:26;93658.97;;;6.65;77.88
33151;BME280;19508;42.578;23.416;2022-12-07T00:50:51;93653.41;;;6.55;78.59
33151;BME280;19508;42.578;23.416;2022-12-07T00:53:17;93649.22;;;6.59;78.65
33151;BME280;19508;42.578;23.416;2022-12-07T00:55:43;93658.88;;;6.60;78.85
33151;BME280;19508;42.578;23.416;2022-12-07T00:58:09;93645.81;;;6.75;78.24
33151;BME280;19508;42.578;23.416;2022-12-07T01:00:36;93645.47;;;6.83;77.83
33151;BME280;19508;42.578;23.416;2022-12-07T01:03:04;93647.13;;;6.84;77.75
33151;BME280;19508;42.578;23.416;2022-12-07T01:05:29;93635.94;;;6.87;77.64
33151;BME280;19508;42.578;23.416;2022-12-07T01:07:55;93647.13;;;6.84;77.38
33151;BME280;19508;42.578;23.416;2022-12-07T01:10:20;93654.53;;;6.82;77.66
33151;BME280;19508;42.578;23.416;2022-12-07T01:12:46;93649.22;;;6.70;77.88
33151;BME280;19508;42.578;23.416;2022-12-07T01:15:11;93656.31;;;6.76;78.26
33151;BME280;19508;42.578;23.416;2022-12-07T01:17:39;93648.16;;;6.71;78.34
33151;BME280;19508;42.578;23.416;2022-12-07T01:20:05;93650.59;;;6.73;78.57
33151;BME280;19508;42.578;23.416;2022-12-07T01:22:31;93641.41;;;6.81;78.00
33151;BME280;19508;42.578;23.416;2022-12-07T01:24:56;93638.28;;;6.72;78.74
33151;BME280;19508;42.578;23.416;2022-12-07T01:27:22;93634.75;;;6.83;78.28
33151;BME280;19508;42.578;23.416;2022-12-07T01:29:47;93630.69;;;6.92;77.77
33151;BME280;19508;42.578;23.416;2022-12-07T01:32:21;93638.47;;;6.82;78.24
33151;BME280;19508;42.578;23.416;2022-12-07T01:34:48;93630.69;;;6.81;78.40
33151;BME280;19508;42.578;23.416;2022-12-07T01:37:13;93635.03;;;6.70;78.46
33151;BME280;19508;42.578;23.416;2022-12-07T01:39:39;93638.97;;;6.67;78.89
33151;BME280;19508;42.578;23.416;2022-12-07T01:42:04;93639.91;;;6.73;78.55
33151;BME280;19508;42.578;23.416;2022-12-07T01:44:30;93634.09;;;6.76;78.49
33151;BME280;19508;42.578;23.416;2022-12-07T01:49:40;93627.56;;;6.72;78.57
33151;BME280;19508;42.578;23.416;2022-12-07T01:52:14;93620.34;;;6.84;78.05
33151;BME280;19508;42.578;23.416;2022-12-07T01:54:44;93615.94;;;6.78;78.09
33151;BME280;19508;42.578;23.416;2022-12-07T01:57:11;93612.19;;;6.79;78.38
33151;BME280;19508;42.578;23.416;2022-12-07T01:59:38;93620.47;;;6.77;78.21
33151;BME280;19508;42.578;23.416;2022-12-07T02:02:08;93619.88;;;6.87;78.38
33151;BME280;19508;42.578;23.416;2022-12-07T02:04:36;93610.56;;;6.90;78.07
33151;BME280;19508;42.578;23.416;2022-12-07T02:07:03;93605.22;;;6.78;78.01
33151;BME280;19508;42.578;23.416;2022-12-07T02:09:29;93601.75;;;6.77;77.90
33151;BME280;19508;42.578;23.416;2022-12-07T02:11:55;93611.03;;;6.75;78.10
33151;BME280;19508;42.578;23.416;2022-12-07T02:14:21;93606.72;;;6.74;77.94
33151;BME280;19508;42.578;23.416;2022-12-07T02:17:12;93609.97;;;6.88;78.42
33151;BME280;19508;42.578;23.416;2022-12-07T02:25:08;93611.63;;;6.65;79.11
33151;BME280;19508;42.578;23.416;2022-12-07T02:27:54;93603.28;;;6.50;79.47
33151;BME280;19508;42.578;23.416;2022-12-07T02:30:28;93603.63;;;6.54;79.30
33151;BME280;19508;42.578;23.416;2022-12-07T02:35:39;93619.69;;;6.42;79.97
33151;BME280;19508;42.578;23.416;2022-12-07T02:38:26;93607.81;;;6.49;79.51
33151;BME280;19508;42.578;23.416;2022-12-07T02:41:06;93607.81;;;6.26;80.12
33151;BME280;19508;42.578;23.416;2022-12-07T02:43:46;93615.13;;;6.31;80.34
33151;BME280;19508;42.578;23.416;2022-12-07T02:46:23;93603.28;;;6.27;79.87
33151;BME280;19508;42.578;23.416;2022-12-07T02:48:51;93607.72;;;6.33;80.57
33151;BME280;19508;42.578;23.416;2022-12-07T02:51:18;93602.81;;;6.41;80.56
33151;BME280;19508;42.578;23.416;2022-12-07T02:53:44;93603.41;;;6.43;80.44
33151;BME280;19508;42.578;23.416;2022-12-07T03:01:36;93604.31;;;6.61;80.50
33151;BME280;19508;42.578;23.416;2022-12-07T03:07:22;93588.72;;;6.58;80.03
33151;BME280;19508;42.578;23.416;2022-12-07T03:10:22;93580.47;;;6.59;80.11
33151;BME280;19508;42.578;23.416;2022-12-07T03:13:23;93584.53;;;6.62;79.74
33151;BME280;19508;42.578;23.416;2022-12-07T03:16:05;93596.53;;;6.47;80.48
33151;BME280;19508;42.578;23.416;2022-12-07T03:18:39;93584.56;;;6.38;80.69
33151;BME280;19508;42.578;23.416;2022-12-07T03:21:10;93587.81;;;6.40;80.12
33151;BME280;19508;42.578;23.416;2022-12-07T03:23:38;93586.88;;;6.35;80.55
33151;BME280;19508;42.578;23.416;2022-12-07T03:26:08;93588.75;;;6.34;80.90
33151;BME280;19508;42.578;23.416;2022-12-07T03:28:39;93576.66;;;6.43;80.70
33151;BME280;19508;42.578;23.416;2022-12-07T03:31:18;93575.47;;;6.39;80.48
33151;BME280;19508;42.578;23.416;2022-12-07T03:34:10;93574.34;;;6.35;81.10
33151;BME280;19508;42.578;23.416;2022-12-07T03:36:56;93578.59;;;6.48;81.04
33151;BME280;19508;42.578;23.416;2022-12-07T03:39:36;93581.06;;;6.49;80.57
33151;BME280;19508;42.578;23.416;2022-12-07T03:42:05;93588.97;;;6.44;81.17
33151;BME280;19508;42.578;23.416;2022-12-07T03:44:34;93572.94;;;6.44;81.08
33151;BME280;19508;42.578;23.416;2022-12-07T03:47:04;93575.38;;;6.46;80.86
33151;BME280;19508;42.578;23.416;2022-12-07T03:49:46;93580.22;;;6.49;81.24
33151;BME280;19508;42.578;23.416;2022-12-07T03:52:37;93586.06;;;6.46;81.44
33151;BME280;19508;42.578;23.416;2022-12-07T03:57:55;93578.41;;;6.49;81.10
33151;BME280;19508;42.578;23.416;2022-12-07T04:00:22;93583.50;;;6.39;81.22
33151;BME280;19508;42.578;23.416;2022-12-07T04:02:51;93581.53;;;6.46;80.89
33151;BME280;19508;42.578;23.416;2022-12-07T04:05:16;93579.91;;;6.45;80.98
33151;BME280;19508;42.578;23.416;2022-12-07T04:07:42;93579.56;;;6.42;80.93
33151;BME280;19508;42.578;23.416;2022-12-07T04:10:08;93580.81;;;6.39;81.26
33151;BME280;19508;42.578;23.416;2022-12-07T04:12:33;93580.47;;;6.47;81.05
33151;BME280;19508;42.578;23.416;2022-12-07T04:14:59;93582.81;;;6.32;81.23
33151;BME280;19508;42.578;23.416;2022-12-07T04:17:24;93578.06;;;6.34;81.18
33151;BME280;19508;42.578;23.416;2022-12-07T04:19:50;93582.94;;;6.37;81.09
33151;BME280;19508;42.578;23.416;2022-12-07T04:22:15;93558.50;;;6.22;81.48
33151;BME280;19508;42.578;23.416;2022-12-07T04:24:41;93571.19;;;6.27;81.74
33151;BME280;19508;42.578;23.416;2022-12-07T04:27:06;93572.72;;;6.34;81.44
33151;BME280;19508;42.578;23.416;2022-12-07T04:29:31;93578.03;;;6.46;81.22
33151;BME280;19508;42.578;23.416;2022-12-07T04:31:57;93578.28;;;6.44;80.96
33151;BME280;19508;42.578;23.416;2022-12-07T04:34:22;93579.44;;;6.48;80.85
33151;BME280;19508;42.578;23.416;2022-12-07T04:36:48;93574.69;;;6.50;80.72
33151;BME280;19508;42.578;23.416;2022-12-07T04:39:25;93570.00;;;6.58;80.84
33151;BME280;19508;42.578;23.416;2022-12-07T04:41:51;93584.31;;;6.52;80.93
33151;BME280;19508;42.578;23.416;2022-12-07T04:44:18;93587.00;;;6.52;81.04
33151;BME280;19508;42.578;23.416;2022-12-07T04:46:43;93589.41;;;6.65;80.74
33151;BME280;19508;42.578;23.416;2022-12-07T04:49:10;93580.69;;;6.58;80.66
33151;BME280;19508;42.578;23.416;2022-12-07T04:51:36;93578.97;;;6.52;80.25
33151;BME280;19508;42.578;23.416;2022-12-07T04:54:02;93572.66;;;6.58;80.29
33151;BME280;19508;42.578;23.416;2022-12-07T04:56:28;93588.06;;;6.50;80.23
33151;BME280;19508;42.578;23.416;2022-12-07T04:58:54;93576.41;;;6.57;80.10
33151;BME280;19508;42.578;23.416;2022-12-07T05:01:21;93585.59;;;6.49;79.96
33151;BME280;19508;42.578;23.416;2022-12-07T05:03:46;93580.47;;;6.47;80.03
33151;BME280;19508;42.578;23.416;2022-12-07T05:06:13;93586.28;;;6.56;79.96
33151;BME280;19508;42.578;23.416;2022-12-07T05:08:38;93594.53;;;6.55;79.85
33151;BME280;19508;42.578;23.416;2022-12-07T05:11:05;93583.03;;;6.54;80.19
33151;BME280;19508;42.578;23.416;2022-12-07T05:13:31;93571.28;;;6.55;79.90
33151;BME280;19508;42.578;23.416;2022-12-07T05:15:57;93573.06;;;6.49;79.96
33151;BME280;19508;42.578;23.416;2022-12-07T05:18:22;93580.94;;;6.56;79.59
33151;BME280;19508;42.578;23.416;2022-12-07T05:20:48;93579.31;;;6.55;79.44
33151;BME280;19508;42.578;23.416;2022-12-07T05:23:13;93581.78;;;6.33;80.30
33151;BME280;19508;42.578;23.416;2022-12-07T05:25:39;93584.56;;;6.38;80.29
33151;BME280;19508;42.578;23.416;2022-12-07T05:28:05;93575.25;;;6.29;80.56
33151;BME280;19508;42.578;23.416;2022-12-07T05:30:31;93560.63;;;6.20;80.42
33151;BME280;19508;42.578;23.416;2022-12-07T05:32:56;93579.56;;;6.30;80.83
33151;BME280;19508;42.578;23.416;2022-12-07T05:35:22;93580.03;;;6.27;80.57
33151;BME280;19508;42.578;23.416;2022-12-07T05:37:47;93588.72;;;6.22;80.85
33151;BME280;19508;42.578;23.416;2022-12-07T05:40:14;93585.38;;;6.27;80.85
33151;BME280;19508;42.578;23.416;2022-12-07T05:42:40;93585.94;;;6.29;81.10
33151;BME280;19508;42.578;23.416;2022-12-07T05:45:06;93578.63;;;6.13;80.80
33151;BME280;19508;42.578;23.416;2022-12-07T05:47:32;93590.97;;;6.26;80.80
33151;BME280;19508;42.578;23.416;2022-12-07T05:49:57;93590.72;;;6.27;80.37
33151;BME280;19508;42.578;23.416;2022-12-07T05:52:23;93592.13;;;6.18;80.18
33151;BME280;19508;42.578;23.416;2022-12-07T05:54:48;93585.50;;;6.09;80.55
33151;BME280;19508;42.578;23.416;2022-12-07T05:57:14;93573.13;;;5.84;81.52
33151;BME280;19508;42.578;23.416;2022-12-07T05:59:39;93568.34;;;5.75;81.92
33151;BME280;19508;42.578;23.416;2022-12-07T06:02:08;93578.47;;;5.84;81.74
33151;BME280;19508;42.578;23.416;2022-12-07T06:04:36;93577.41;;;5.85;82.05
33151;BME280;19508;42.578;23.416;2022-12-07T06:07:03;93574.56;;;5.99;82.01
33151;BME280;19508;42.578;23.416;2022-12-07T06:09:29;93571.28;;;5.97;81.74
33151;BME280;19508;42.578;23.416;2022-12-07T06:11:55;93563.88;;;5.99;81.73
33151;BME280;19508;42.578;23.416;2022-12-07T06:14:39;93568.63;;;6.08;81.20
33151;BME280;19508;42.578;23.416;2022-12-07T06:17:05;93568.06;;;6.18;81.44
33151;BME280;19508;42.578;23.416;2022-12-07T06:19:31;93571.56;;;6.07;81.91
33151;BME280;19508;42.578;23.416;2022-12-07T06:21:57;93572.47;;;6.01;82.26
33151;BME280;19508;42.578;23.416;2022-12-07T06:24:23;93584.00;;;6.25;82.35
33151;BME280;19508;42.578;23.416;2022-12-07T06:26:49;93585.03;;;6.35;81.87
33151;BME280;19508;42.578;23.416;2022-12-07T06:29:14;93582.34;;;6.47;82.16
33151;BME280;19508;42.578;23.416;2022-12-07T06:31:40;93575.47;;;6.63;81.69
33151;BME280;19508;42.578;23.416;2022-12-07T06:34:09;93573.25;;;6.71;81.44
33151;BME280;19508;42.578;23.416;2022-12-07T06:36:35;93576.16;;;6.70;81.57
33151;BME280;19508;42.578;23.416;2022-12-07T06:39:01;93577.22;;;6.69;81.17
33151;BME280;19508;42.578;23.416;2022-12-07T06:41:26;93578.59;;;6.71;80.94
33151;BME280;19508;42.578;23.416;2022-12-07T06:43:52;93586.69;;;6.88;80.47
33151;BME280;19508;42.578;23.416;2022-12-07T06:46:17;93584.22;;;6.98;79.26
33151;BME280;19508;42.578;23.416;2022-12-07T06:48:43;93588.59;;;7.16;79.24
33151;BME280;19508;42.578;23.416;2022-12-07T06:51:09;93591.81;;;7.30;78.62
33151;BME280;19508;42.578;23.416;2022-12-07T06:53:35;93580.09;;;7.19;78.36
33151;BME280;19508;42.578;23.416;2022-12-07T06:56:01;93582.09;;;7.41;78.35
33151;BME280;19508;42.578;23.416;2022-12-07T06:58:27;93581.78;;;7.37;78.09
33151;BME280;19508;42.578;23.416;2022-12-07T07:00:53;93580.25;;;7.41;77.76
33151;BME280;19508;42.578;23.416;2022-12-07T07:03:18;93590.09;;;7.52;77.37
33151;BME280;19508;42.578;23.416;2022-12-07T07:05:44;93590.47;;;7.73;76.59
33151;BME280;19508;42.578;23.416;2022-12-07T07:08:10;93591.63;;;7.93;75.77
33151;BME280;19508;42.578;23.416;2022-12-07T07:10:36;93593.03;;;8.13;75.41
33151;BME280;19508;42.578;23.416;2022-12-07T07:13:02;93585.44;;;7.93;75.54
33151;BME280;19508;42.578;23.416;2022-12-07T07:15:27;93586.19;;;8.05;75.92
33151;BME280;19508;42.578;23.416;2022-12-07T07:17:53;93582.47;;;8.06;75.73
33151;BME280;19508;42.578;23.416;2022-12-07T07:20:18;93583.19;;;8.18;74.83
33151;BME280;19508;42.578;23.416;2022-12-07T07:22:44;93581.81;;;7.99;75.06
33151;BME280;19508;42.578;23.416;2022-12-07T07:25:09;93586.44;;;8.04;74.51
33151;BME280;19508;42.578;23.416;2022-12-07T07:27:35;93579.75;;;7.73;75.87
33151;BME280;19508;42.578;23.416;2022-12-07T07:30:00;93585.84;;;7.85;75.69
33151;BME280;19508;42.578;23.416;2022-12-07T07:32:26;93596.00;;;8.00;75.39
33151;BME280;19508;42.578;23.416;2022-12-07T07:34:51;93590.00;;;7.92;75.15
33151;BME280;19508;42.578;23.416;2022-12-07T07:37:17;93600.69;;;7.76;75.56
33151;BME280;19508;42.578;23.416;2022-12-07T07:39:42;93595.72;;;7.68;75.43
33151;BME280;19508;42.578;23.416;2022-12-07T07:42:08;93598.25;;;7.74;75.44
33151;BME280;19508;42.578;23.416;2022-12-07T07:44:34;93596.75;;;7.78;75.74
33151;BME280;19508;42.578;23.416;2022-12-07T07:47:00;93597.31;;;7.97;75.49
33151;BME280;19508;42.578;23.416;2022-12-07T07:49:26;93597.16;;;8.04;75.22
33151;BME280;19508;42.578;23.416;2022-12-07T07:51:51;93596.00;;;8.00;75.46
33151;BME280;19508;42.578;23.416;2022-12-07T07:54:17;93593.69;;;8.03;75.22
33151;BME280;19508;42.578;23.416;2022-12-07T07:56:43;93585.94;;;7.90;76.19
33151;BME280;19508;42.578;23.416;2022-12-07T07:59:08;93584.78;;;8.19;74.77
33151;BME280;19508;42.578;23.416;2022-12-07T08:01:34;93594.47;;;8.54;74.44
33151;BME280;19508;42.578;23.416;2022-12-07T08:03:59;93596.53;;;8.86;73.34
33151;BME280;19508;42.578;23.416;2022-12-07T08:06:25;93592.25;;;9.28;70.58
33151;BME280;19508;42.578;23.416;2022-12-07T08:08:50;93595.66;;;9.46;69.77
33151;BME280;19508;42.578;23.416;2022-12-07T08:11:16;93593.88;;;9.29;71.04
33151;BME280;19508;42.578;23.416;2022-12-07T08:13:41;93598.78;;;9.38;69.82
33151;BME280;19508;42.578;23.416;2022-12-07T08:16:09;93592.94;;;9.41;69.67
33151;BME280;19508;42.578;23.416;2022-12-07T08:18:39;93595.66;;;9.68;69.30
33151;BME280;19508;42.578;23.416;2022-12-07T08:21:06;93598.13;;;9.25;70.49
33151;BME280;19508;42.578;23.416;2022-12-07T08:23:32;93585.31;;;9.32;70.23
33151;BME280;19508;42.578;23.416;2022-12-07T08:26:07;93599.25;;;9.29;70.34
33151;BME280;19508;42.578;23.416;2022-12-07T08:28:32;93595.88;;;9.17;71.03
33151;BME280;19508;42.578;23.416;2022-12-07T08:31:02;93592.00;;;9.08;71.69
33151;BME280;19508;42.578;23.416;2022-12-07T08:33:28;93601.09;;;9.51;69.44
33151;BME280;19508;42.578;23.416;2022-12-07T08:35:54;93580.47;;;9.83;68.06
33151;BME280;19508;42.578;23.416;2022-12-07T08:38:19;93586.09;;;10.09;68.11
33151;BME280;19508;42.578;23.416;2022-12-07T08:40:56;93578.81;;;10.36;67.59
33151;BME280;19508;42.578;23.416;2022-12-07T08:43:22;93569.66;;;10.37;66.84
33151;BME280;19508;42.578;23.416;2022-12-07T08:45:55;93585.69;;;10.59;65.76
33151;BME280;19508;42.578;23.416;2022-12-07T08:48:27;93584.56;;;10.18;66.36
33151;BME280;19508;42.578;23.416;2022-12-07T08:50:53;93582.94;;;10.17;67.29
33151;BME280;19508;42.578;23.416;2022-12-07T08:53:18;93581.03;;;10.50;65.71
33151;BME280;19508;42.578;23.416;2022-12-07T08:55:47;93578.34;;;10.50;65.59
33151;BME280;19508;42.578;23.416;2022-12-07T08:58:13;93576.59;;;10.33;66.62
33151;BME280;19508;42.578;23.416;2022-12-07T09:00:39;93578.72;;;10.26;66.76
33151;BME280;19508;42.578;23.416;2022-12-07T09:03:04;93579.41;;;9.84;68.30
33151;BME280;19508;42.578;23.416;2022-12-07T09:05:29;93577.97;;;10.04;67.66
33151;BME280;19508;42.578;23.416;2022-12-07T09:07:58;93563.25;;;10.16;67.39
33151;BME280;19508;42.578;23.416;2022-12-07T09:10:25;93570.56;;;9.62;68.76
33151;BME280;19508;42.578;23.416;2022-12-07T09:12:51;93567.97;;;9.72;69.24
33151;BME280;19508;42.578;23.416;2022-12-07T09:15:17;93563.97;;;10.02;68.75
33151;BME280;19508;42.578;23.416;2022-12-07T09:17:42;93558.63;;;10.07;67.96
33151;BME280;19508;42.578;23.416;2022-12-07T09:20:08;93565.34;;;10.36;67.47
33151;BME280;19508;42.578;23.416;2022-12-07T09:22:33;93564.81;;;10.39;66.38
33151;BME280;19508;42.578;23.416;2022-12-07T09:24:59;93556.84;;;9.90;68.65
33151;BME280;19508;42.578;23.416;2022-12-07T09:27:26;93558.09;;;10.37;66.48
33151;BME280;19508;42.578;23.416;2022-12-07T09:29:51;93548.31;;;10.26;67.63
33151;BME280;19508;42.578;23.416;2022-12-07T09:32:17;93543.44;;;10.23;67.15
33151;BME280;19508;42.578;23.416;2022-12-07T09:34:44;93545.56;;;10.58;65.53
33151;BME280;19508;42.578;23.416;2022-12-07T09:37:09;93550.44;;;10.61;64.92
33151;BME280;19508;42.578;23.416;2022-12-07T09:39:39;93541.47;;;10.45;65.48
33151;BME280;19508;42.578;23.416;2022-12-07T09:42:07;93532.03;;;10.48;65.53
33151;BME280;19508;42.578;23.416;2022-12-07T09:44:33;93524.91;;;9.94;66.80
33151;BME280;19508;42.578;23.416;2022-12-07T09:47:00;93529.75;;;9.97;67.96
33151;BME280;19508;42.578;23.416;2022-12-07T09:49:30;93531.50;;;10.45;66.85
33151;BME280;19508;42.578;23.416;2022-12-07T09:54:43;93525.72;;;10.00;67.16
33151;BME280;19508;42.578;23.416;2022-12-07T09:57:11;93525.03;;;9.77;68.37
33151;BME280;19508;42.578;23.416;2022-12-07T09:59:38;93519.59;;;9.72;68.74
33151;BME280;19508;42.578;23.416;2022-12-07T10:04:57;93518.25;;;10.07;68.31
33151;BME280;19508;42.578;23.416;2022-12-07T10:07:23;93507.72;;;10.32;66.91
33151;BME280;19508;42.578;23.416;2022-12-07T10:09:49;93518.25;;;10.07;69.21
33151;BME280;19508;42.578;23.416;2022-12-07T10:12:14;93492.69;;;10.41;66.73
33151;BME280;19508;42.578;23.416;2022-12-07T10:14:56;93500.25;;;10.97;65.48
33151;BME280;19508;42.578;23.416;2022-12-07T10:17:32;93500.41;;;10.70;66.43
33151;BME280;19508;42.578;23.416;2022-12-07T10:23:05;93486.59;;;10.51;66.97
33151;BME280;19508;42.578;23.416;2022-12-07T10:25:38;93498.38;;;10.97;65.69
33151;BME280;19508;42.578;23.416;2022-12-07T10:36:09;93474.59;;;11.93;61.86
33151;BME280;19508;42.578;23.416;2022-12-07T10:38:45;93474.59;;;12.03;62.27
33151;BME280;19508;42.578;23.416;2022-12-07T10:41:11;93472.13;;;12.37;60.01
33151;BME280;19508;42.578;23.416;2022-12-07T10:43:36;93454.84;;;12.43;60.21
33151;BME280;19508;42.578;23.416;2022-12-07T10:51:51;93460.84;;;12.09;60.58
33151;BME280;19508;42.578;23.416;2022-12-07T10:54:36;93458.63;;;12.37;59.73
33151;BME280;19508;42.578;23.416;2022-12-07T10:59:50;93446.78;;;12.12;61.65
33151;BME280;19508;42.578;23.416;2022-12-07T11:02:27;93445.97;;;11.56;63.08
33151;BME280;19508;42.578;23.416;2022-12-07T11:05:28;93430.59;;;11.67;62.91
33151;BME280;19508;42.578;23.416;2022-12-07T11:10:38;93433.81;;;11.28;63.64
33151;BME280;19508;42.578;23.416;2022-12-07T11:18:34;93431.63;;;12.37;59.08
33151;BME280;19508;42.578;23.416;2022-12-07T11:23:51;93426.25;;;13.95;55.37
33151;BME280;19508;42.578;23.416;2022-12-07T11:37:23;93407.41;;;13.46;55.22
33151;BME280;19508;42.578;23.416;2022-12-07T11:39:54;93403.59;;;13.52;56.25
33151;BME280;19508;42.578;23.416;2022-12-07T11:42:25;93398.03;;;14.30;53.00
33151;BME280;19508;42.578;23.416;2022-12-07T11:44:59;93382.00;;;14.34;52.92
33151;BME280;19508;42.578;23.416;2022-12-07T11:54:58;93379.63;;;14.80;50.58
33151;BME280;19508;42.578;23.416;2022-12-07T11:57:35;93375.56;;;14.30;53.01
33151;BME280;19508;42.578;23.416;2022-12-07T12:00:06;93367.19;;;14.26;53.73
33151;BME280;19508;42.578;23.416;2022-12-07T12:02:47;93360.13;;;14.30;53.72
33151;BME280;19508;42.578;23.416;2022-12-07T12:05:20;93359.97;;;14.17;53.84
33151;BME280;19508;42.578;23.416;2022-12-07T12:07:52;93347.34;;;14.60;52.49
33151;BME280;19508;42.578;23.416;2022-12-07T12:18:50;93352.09;;;13.91;54.36
33151;BME280;19508;42.578;23.416;2022-12-07T12:21:29;93347.25;;;14.17;53.64
33151;BME280;19508;42.578;23.416;2022-12-07T12:24:06;93346.50;;;14.35;52.09
33151;BME280;19508;42.578;23.416;2022-12-07T12:26:37;93342.06;;;14.92;51.40
33151;BME280;19508;42.578;23.416;2022-12-07T12:29:05;93329.38;;;14.88;50.63
33151;BME280;19508;42.578;23.416;2022-12-07T12:34:00;93344.66;;;14.07;53.38
33151;BME280;19508;42.578;23.416;2022-12-07T12:39:09;93333.41;;;13.32;55.92
33151;BME280;19508;42.578;23.416;2022-12-07T12:46:53;93326.25;;;13.07;57.33
33151;BME280;19508;42.578;23.416;2022-12-07T12:51:58;93324.91;;;12.65;57.71
33151;BME280;19508;42.578;23.416;2022-12-07T12:54:26;93329.03;;;12.42;58.71
33151;BME280;19508;42.578;23.416;2022-12-07T12:57:20;93329.56;;;12.39;59.15
33151;BME280;19508;42.578;23.416;2022-12-07T13:02:30;93326.44;;;12.17;60.23
33151;BME280;19508;42.578;23.416;2022-12-07T13:08:01;93325.34;;;12.18;59.79
33151;BME280;19508;42.578;23.416;2022-12-07T13:15:48;93325.44;;;11.67;61.78
33151;BME280;19508;42.578;23.416;2022-12-07T13:18:37;93329.94;;;12.12;60.21
33151;BME280;19508;42.578;23.416;2022-12-07T13:31:40;93333.47;;;12.02;60.41
33151;BME280;19508;42.578;23.416;2022-12-07T13:37:01;93336.72;;;12.14;60.32
33151;BME280;19508;42.578;23.416;2022-12-07T13:39:29;93335.66;;;12.05;60.40
33151;BME280;19508;42.578;23.416;2022-12-07T13:41:58;93336.75;;;11.74;61.15
33151;BME280;19508;42.578;23.416;2022-12-07T13:44:27;93335.69;;;11.90;60.76
33151;BME280;19508;42.578;23.416;2022-12-07T13:49:44;93338.63;;;11.68;61.74
33151;BME280;19508;42.578;23.416;2022-12-07T13:52:26;93332.47;;;11.57;62.35
33151;BME280;19508;42.578;23.416;2022-12-07T13:55:00;93331.88;;;11.76;61.79
33151;BME280;19508;42.578;23.416;2022-12-07T13:57:28;93331.38;;;11.53;62.45
33151;BME280;19508;42.578;23.416;2022-12-07T13:59:55;93332.47;;;11.22;63.79
33151;BME280;19508;42.578;23.416;2022-12-07T14:02:30;93313.31;;;10.88;64.34
33151;BME280;19508;42.578;23.416;2022-12-07T14:10:55;93319.50;;;10.98;64.38
33151;BME280;19508;42.578;23.416;2022-12-07T14:13:38;93320.59;;;11.08;64.23
33151;BME280;19508;42.578;23.416;2022-12-07T14:18:43;93329.72;;;10.71;65.41
33151;BME280;19508;42.578;23.416;2022-12-07T14:23:34;93335.00;;;10.51;66.66
33151;BME280;19508;42.578;23.416;2022-12-07T14:26:20;93331.22;;;10.41;67.45
33151;BME280;19508;42.578;23.416;2022-12-07T14:28:46;93339.03;;;10.38;67.33
33151;BME280;19508;42.578;23.416;2022-12-07T14:31:14;93328.50;;;10.31;67.67
33151;BME280;19508;42.578;23.416;2022-12-07T14:33:40;93328.50;;;10.26;67.63
33151;BME280;19508;42.578;23.416;2022-12-07T14:36:13;93330.25;;;10.05;69.08
33151;BME280;19508;42.578;23.416;2022-12-07T14:38:39;93326.16;;;9.98;68.72
33151;BME280;19508;42.578;23.416;2022-12-07T14:41:10;93330.69;;;9.87;68.98
33151;BME280;19508;42.578;23.416;2022-12-07T14:43:57;93317.91;;;9.62;69.22
33151;BME280;19508;42.578;23.416;2022-12-07T14:46:22;93324.78;;;9.48;70.73
33151;BME280;19508;42.578;23.416;2022-12-07T14:48:47;93333.03;;;9.36;71.29
33151;BME280;19508;42.578;23.416;2022-12-07T14:51:13;93321.97;;;9.27;71.56
33151;BME280;19508;42.578;23.416;2022-12-07T14:53:41;93336.47;;;9.26;70.96
33151;BME280;19508;42.578;23.416;2022-12-07T14:56:07;93340.03;;;9.05;71.77
33151;BME280;19508;42.578;23.416;2022-12-07T14:58:33;93338.00;;;8.85;72.73
33151;BME280;19508;42.578;23.416;2022-12-07T15:00:59;93338.06;;;8.95;72.33
33151;BME280;19508;42.578;23.416;2022-12-07T15:03:25;93334.97;;;8.76;72.31
33151;BME280;19508;42.578;23.416;2022-12-07T15:05:50;93352.75;;;8.83;72.51
33151;BME280;19508;42.578;23.416;2022-12-07T15:08:16;93359.22;;;8.60;73.22
33151;BME280;19508;42.578;23.416;2022-12-07T15:10:41;93363.75;;;8.59;73.67
33151;BME280;19508;42.578;23.416;2022-12-07T15:13:07;93356.97;;;8.52;73.71
33151;BME280;19508;42.578;23.416;2022-12-07T15:15:53;93364.84;;;8.36;74.45
33151;BME280;19508;42.578;23.416;2022-12-07T15:18:19;93356.56;;;8.38;73.28
33151;BME280;19508;42.578;23.416;2022-12-07T15:20:45;93359.22;;;8.16;73.98
33151;BME280;19508;42.578;23.416;2022-12-07T15:23:11;93356.09;;;8.24;73.58